createdAt,value
2018-01-25T00:00:52.038Z,939.1
2018-01-25T00:01:57.090Z,939.2
2018-01-25T00:03:01.079Z,939
2018-01-25T00:04:06.515Z,939
2018-01-25T00:05:09.935Z,939
2018-01-25T00:06:14.586Z,939
2018-01-25T00:07:55.879Z,939
2018-01-25T00:09:00.521Z,938.9
2018-01-25T00:10:05.167Z,939
2018-01-25T00:11:10.393Z,938.9
2018-01-25T00:12:14.465Z,939
2018-01-25T00:13:19.221Z,938.9
2018-01-25T00:14:23.207Z,934.8
2018-01-25T00:15:26.524Z,938.9
2018-01-25T00:16:30.317Z,938.9
2018-01-25T00:17:33.758Z,938.9
2018-01-25T00:18:42.614Z,938.9
2018-01-25T00:19:46.673Z,938.9
2018-01-25T00:20:51.889Z,938.7
2018-01-25T00:21:57.580Z,938.8
2018-01-25T00:23:02.143Z,938.7
2018-01-25T00:24:06.295Z,938.8
2018-01-25T00:25:14.448Z,938.8
2018-01-25T00:26:21.130Z,938.7
2018-01-25T00:27:28.584Z,938.8
2018-01-25T00:28:33.761Z,938.8
2018-01-25T00:29:47.692Z,938.8
2018-01-25T00:30:54.247Z,938.8
2018-01-25T00:31:59.546Z,938.8
2018-01-25T00:33:04.868Z,938.7
2018-01-25T00:34:10.977Z,938.7
2018-01-25T00:35:15.749Z,938.7
2018-01-25T00:36:21.897Z,938.8
2018-01-25T00:37:27.395Z,938.8
2018-01-25T00:38:32.095Z,938.8
2018-01-25T00:39:36.182Z,938.9
2018-01-25T00:40:45.799Z,938.9
2018-01-25T00:41:49.288Z,938.9
2018-01-25T00:42:52.648Z,938.9
2018-01-25T00:43:56.016Z,938.9
2018-01-25T00:45:00.062Z,938.8
2018-01-25T00:46:03.287Z,938.8
2018-01-25T00:47:06.669Z,938.8
2018-01-25T00:48:10.544Z,938.7
2018-01-25T00:49:14.062Z,938.7
2018-01-25T00:50:18.534Z,938.7
2018-01-25T00:51:59.272Z,938.8
2018-01-25T00:53:03.422Z,938.8
2018-01-25T00:54:08.078Z,938.8
2018-01-25T00:55:11.311Z,938.9
2018-01-25T00:56:14.783Z,939
2018-01-25T00:57:18.669Z,938.9
2018-01-25T00:58:23.556Z,938.9
2018-01-25T00:59:27.126Z,938.9
2018-01-25T01:00:30.438Z,939
2018-01-25T01:01:33.914Z,938.9
2018-01-25T01:02:40.889Z,938.9
2018-01-25T01:03:44.263Z,938.8
2018-01-25T01:04:48.675Z,938.9
2018-01-25T01:05:52.625Z,938.9
2018-01-25T01:06:56.694Z,939
2018-01-25T01:08:00.003Z,939
2018-01-25T01:09:03.783Z,939
2018-01-25T01:10:07.190Z,939
2018-01-25T01:11:11.477Z,939
2018-01-25T01:12:15.310Z,938.9
2018-01-25T01:13:22.921Z,938.9
2018-01-25T01:14:26.872Z,939.1
2018-01-25T01:15:30.817Z,939
2018-01-25T01:16:34.914Z,939
2018-01-25T01:17:38.363Z,939
2018-01-25T01:18:43.119Z,939.1
2018-01-25T01:19:46.969Z,939.1
2018-01-25T01:20:51.058Z,939.1
2018-01-25T01:21:55.715Z,939.1
2018-01-25T01:22:59.841Z,939.2
2018-01-25T01:24:09.554Z,939.2
2018-01-25T01:25:13.632Z,939.1
2018-01-25T01:26:18.877Z,939.1
2018-01-25T01:27:23.741Z,939
2018-01-25T01:28:28.887Z,939.1
2018-01-25T01:29:32.910Z,939.1
2018-01-25T01:30:36.957Z,939
2018-01-25T01:31:44.037Z,939.1
2018-01-25T01:32:48.532Z,939.1
2018-01-25T01:33:53.595Z,939.1
2018-01-25T01:36:38.994Z,939.3
2018-01-25T01:37:43.800Z,939.2
2018-01-25T01:38:49.571Z,939.2
2018-01-25T01:39:55.345Z,939.2
2018-01-25T01:40:59.389Z,939.3
2018-01-25T01:42:03.968Z,939.3
2018-01-25T01:43:08.216Z,939.3
2018-01-25T01:44:13.515Z,939.3
2018-01-25T01:45:19.442Z,939.3
2018-01-25T01:46:25.858Z,939.3
2018-01-25T01:48:11.694Z,939.2
2018-01-25T01:49:19.129Z,939.2
2018-01-25T01:50:24.247Z,939.2
2018-01-25T01:51:31.585Z,939.2
2018-01-25T01:52:36.386Z,939.2
2018-01-25T01:53:43.207Z,939.2
2018-01-25T01:54:48.735Z,939.4
2018-01-25T01:55:54.150Z,939.3
2018-01-25T01:56:58.827Z,939.4
2018-01-25T01:58:03.988Z,939.3
2018-01-25T01:59:15.524Z,939.3
2018-01-25T02:00:22.347Z,939.2
2018-01-25T02:01:28.691Z,939.3
2018-01-25T02:02:32.553Z,939.2
2018-01-25T02:03:37.492Z,939.3
2018-01-25T02:04:41.178Z,939.2
2018-01-25T02:05:46.015Z,939.2
2018-01-25T02:06:51.163Z,939.2
2018-01-25T02:07:58.719Z,939.1
2018-01-25T02:09:02.930Z,939.1
2018-01-25T02:10:10.811Z,939.1
2018-01-25T02:11:15.774Z,939.2
2018-01-25T02:12:19.315Z,939.2
2018-01-25T02:13:28.347Z,939.1
2018-01-25T02:14:36.032Z,939.1
2018-01-25T02:15:39.948Z,939
2018-01-25T02:16:49.153Z,939
2018-01-25T02:17:57.388Z,939
2018-01-25T02:19:02.484Z,939
2018-01-25T02:20:09.023Z,934.9
2018-01-25T02:21:18.722Z,939
2018-01-25T02:22:23.885Z,939
2018-01-25T02:23:30.023Z,938.9
2018-01-25T02:24:36.125Z,938.9
2018-01-25T02:25:41.945Z,938.8
2018-01-25T02:26:46.803Z,938.9
2018-01-25T02:27:53.547Z,938.9
2018-01-25T02:29:01.640Z,938.9
2018-01-25T02:30:08.827Z,938.9
2018-01-25T02:31:13.598Z,938.8
2018-01-25T02:32:23.473Z,938.9
2018-01-25T02:33:26.831Z,939
2018-01-25T02:34:32.007Z,939
2018-01-25T02:35:38.344Z,938.9
2018-01-25T02:36:43.435Z,939.1
2018-01-25T02:37:51.377Z,939
2018-01-25T02:38:58.780Z,939
2018-01-25T02:40:02.241Z,938.9
2018-01-25T02:41:05.354Z,938.9
2018-01-25T02:42:09.354Z,938.8
2018-01-25T02:43:20.650Z,938.8
2018-01-25T02:44:25.783Z,938.8
2018-01-25T02:45:32.993Z,938.8
2018-01-25T02:46:44.546Z,938.8
2018-01-25T02:47:50.772Z,938.8
2018-01-25T02:48:56.692Z,938.8
2018-01-25T02:50:02.004Z,938.8
2018-01-25T02:51:06.332Z,938.8
2018-01-25T02:52:12.395Z,938.8
2018-01-25T02:53:20.308Z,934.6
2018-01-25T02:54:35.185Z,938.8
2018-01-25T02:55:39.700Z,938.8
2018-01-25T02:56:45.755Z,938.7
2018-01-25T02:57:53.007Z,938.8
2018-01-25T02:58:59.641Z,938.7
2018-01-25T03:00:05.796Z,938.8
2018-01-25T03:01:12.477Z,938.8
2018-01-25T03:02:20.343Z,938.8
2018-01-25T03:03:26.801Z,938.8
2018-01-25T03:04:33.391Z,938.8
2018-01-25T03:06:15.428Z,938.7
2018-01-25T03:07:18.817Z,938.7
2018-01-25T03:08:22.648Z,938.7
2018-01-25T03:09:27.891Z,938.6
2018-01-25T03:10:32.211Z,938.7
2018-01-25T03:11:35.481Z,938.6
2018-01-25T03:12:39.417Z,938.7
2018-01-25T03:13:43.337Z,938.6
2018-01-25T03:14:46.776Z,938.7
2018-01-25T03:15:50.818Z,938.6
2018-01-25T03:17:00.757Z,938.7
2018-01-25T03:18:04.126Z,938.6
2018-01-25T03:19:08.068Z,938.7
2018-01-25T03:20:12.812Z,938.6
2018-01-25T03:21:16.154Z,938.7
2018-01-25T03:22:19.531Z,938.6
2018-01-25T03:23:22.976Z,938.6
2018-01-25T03:24:27.492Z,938.6
2018-01-25T03:25:30.781Z,938.6
2018-01-25T03:26:34.067Z,938.5
2018-01-25T03:27:42.433Z,938.7
2018-01-25T03:28:47.146Z,938.6
2018-01-25T03:29:51.752Z,938.5
2018-01-25T03:30:56.149Z,938.6
2018-01-25T03:32:00.104Z,938.6
2018-01-25T03:33:03.561Z,938.5
2018-01-25T03:34:06.898Z,938.5
2018-01-25T03:35:10.347Z,938.6
2018-01-25T03:36:13.605Z,938.5
2018-01-25T03:37:17.537Z,938.5
2018-01-25T03:38:25.581Z,938.5
2018-01-25T03:39:31.655Z,938.5
2018-01-25T03:40:35.669Z,938.6
2018-01-25T03:41:40.575Z,934.5
2018-01-25T03:42:43.952Z,938.5
2018-01-25T03:43:48.390Z,938.5
2018-01-25T03:44:52.276Z,938.5
2018-01-25T03:45:58.510Z,935
2018-01-25T03:47:03.647Z,938.4
2018-01-25T03:48:07.133Z,934.3
2018-01-25T03:49:15.245Z,938.5
2018-01-25T03:50:21.033Z,938.6
2018-01-25T03:51:25.024Z,938.5
2018-01-25T03:52:29.116Z,938.5
2018-01-25T03:53:33.120Z,938.5
2018-01-25T03:54:38.374Z,938.4
2018-01-25T03:55:43.061Z,938.4
2018-01-25T03:56:47.961Z,938.5
2018-01-25T03:57:51.460Z,938.5
2018-01-25T03:58:56.977Z,938.5
2018-01-25T04:00:05.240Z,938.5
2018-01-25T04:01:10.904Z,938.5
2018-01-25T04:02:16.072Z,938.5
2018-01-25T04:03:20.641Z,938.5
2018-01-25T04:04:24.859Z,938.5
2018-01-25T04:05:30.221Z,938.5
2018-01-25T04:06:35.178Z,938.5
2018-01-25T04:07:42.598Z,938.5
2018-01-25T04:08:47.756Z,938.5
2018-01-25T04:09:56.749Z,938.4
2018-01-25T04:11:09.534Z,938.4
2018-01-25T04:12:14.124Z,938.4
2018-01-25T04:13:19.873Z,938.4
2018-01-25T04:14:25.824Z,938.3
2018-01-25T04:15:30.919Z,938.5
2018-01-25T04:16:35.811Z,938.4
2018-01-25T04:17:41.562Z,938.4
2018-01-25T04:18:45.752Z,938.4
2018-01-25T04:19:53.388Z,938.4
2018-01-25T04:21:00.541Z,938.5
2018-01-25T04:22:10.558Z,938.4
2018-01-25T04:23:16.700Z,938.5
2018-01-25T04:24:22.758Z,938.4
2018-01-25T04:25:28.127Z,938.4
2018-01-25T04:26:34.478Z,938.6
2018-01-25T04:27:42.449Z,938.5
2018-01-25T04:28:48.774Z,938.5
2018-01-25T04:29:55.599Z,938.5
2018-01-25T04:31:03.595Z,938.5
2018-01-25T04:32:06.828Z,938.5
2018-01-25T04:34:22.807Z,938.5
2018-01-25T04:35:29.969Z,938.6
2018-01-25T04:36:36.853Z,938.5
2018-01-25T04:37:43.556Z,938.5
2018-01-25T04:38:47.570Z,938.5
2018-01-25T04:39:53.200Z,938.4
2018-01-25T04:41:00.860Z,938.4
2018-01-25T04:42:07.732Z,938.5
2018-01-25T04:43:13.422Z,938.5
2018-01-25T04:44:21.437Z,938.4
2018-01-25T04:45:33.385Z,938.5
2018-01-25T04:46:38.223Z,938.5
2018-01-25T04:47:45.759Z,938.4
2018-01-25T04:48:53.067Z,938.4
2018-01-25T04:50:00.073Z,938.5
2018-01-25T04:51:05.698Z,938.4
2018-01-25T04:52:11.246Z,938.5
2018-01-25T04:53:16.758Z,938.5
2018-01-25T04:54:23.485Z,938.4
2018-01-25T04:55:30.768Z,938.3
2018-01-25T04:57:12.784Z,938.3
2018-01-25T04:58:18.725Z,938.4
2018-01-25T04:59:24.008Z,938.3
2018-01-25T05:00:28.356Z,938.4
2018-01-25T05:01:33.129Z,938.4
2018-01-25T05:02:36.480Z,938.4
2018-01-25T05:03:39.806Z,938.3
2018-01-25T05:04:45.189Z,938.3
2018-01-25T05:05:51.616Z,938.3
2018-01-25T05:06:57.100Z,938.4
2018-01-25T05:08:06.467Z,938.4
2018-01-25T05:09:14.648Z,938.3
2018-01-25T05:10:25.491Z,938.3
2018-01-25T05:11:31.002Z,938.4
2018-01-25T05:12:36.372Z,938.3
2018-01-25T05:13:42.647Z,938.4
2018-01-25T05:14:48.631Z,938.4
2018-01-25T05:15:54.538Z,938.4
2018-01-25T05:17:02.812Z,938.4
2018-01-25T05:18:09.010Z,938.3
2018-01-25T05:19:51.476Z,938.4
2018-01-25T05:20:55.382Z,938.4
2018-01-25T05:22:05.249Z,938.4
2018-01-25T05:23:13.257Z,938.4
2018-01-25T05:24:19.646Z,938.4
2018-01-25T05:25:24.749Z,938.4
2018-01-25T05:26:32.274Z,938.5
2018-01-25T05:27:38.839Z,938.5
2018-01-25T05:28:49.115Z,938.5
2018-01-25T05:29:53.339Z,938.5
2018-01-25T05:31:02.571Z,938.5
2018-01-25T05:32:09.400Z,938.5
2018-01-25T05:33:15.997Z,938.4
2018-01-25T05:34:19.391Z,938.6
2018-01-25T05:35:22.759Z,938.5
2018-01-25T05:36:27.044Z,938.5
2018-01-25T05:37:30.434Z,938.4
2018-01-25T05:38:34.513Z,938.4
2018-01-25T05:39:37.749Z,938.5
2018-01-25T05:40:41.809Z,938.4
2018-01-25T05:41:49.367Z,938.5
2018-01-25T05:42:54.411Z,938.4
2018-01-25T05:43:58.463Z,938.4
2018-01-25T05:45:02.666Z,938.4
2018-01-25T05:46:06.057Z,938.5
2018-01-25T05:47:09.431Z,938.4
2018-01-25T05:48:12.948Z,938.4
2018-01-25T05:49:16.889Z,938.4
2018-01-25T05:50:20.884Z,938.3
2018-01-25T05:51:24.905Z,938.3
2018-01-25T05:52:31.752Z,938.3
2018-01-25T05:53:35.632Z,938.3
2018-01-25T05:54:39.273Z,938.4
2018-01-25T05:55:43.459Z,938.4
2018-01-25T05:56:47.860Z,938.4
2018-01-25T05:57:52.104Z,938.3
2018-01-25T05:58:56.109Z,936.9
2018-01-25T06:00:01.053Z,938.3
2018-01-25T06:01:05.216Z,938.3
2018-01-25T06:02:09.237Z,938.3
2018-01-25T06:03:21.327Z,938.3
2018-01-25T06:04:24.760Z,938.2
2018-01-25T06:05:28.664Z,938.3
2018-01-25T06:06:33.437Z,938.3
2018-01-25T06:07:37.499Z,938.3
2018-01-25T06:08:42.899Z,938.3
2018-01-25T06:09:46.761Z,938.3
2018-01-25T06:10:50.849Z,938.3
2018-01-25T06:11:55.986Z,938.3
2018-01-25T06:13:11.037Z,938.3
2018-01-25T06:14:19.195Z,938.3
2018-01-25T06:15:23.778Z,938.3
2018-01-25T06:16:27.150Z,938.5
2018-01-25T06:17:32.376Z,938.3
2018-01-25T06:18:39.819Z,938.3
2018-01-25T06:19:44.446Z,938.3
2018-01-25T06:20:52.455Z,938.3
2018-01-25T06:21:59.776Z,938.3
2018-01-25T06:23:04.564Z,938.3
2018-01-25T06:24:08.591Z,938.4
2018-01-25T06:25:52.282Z,938.3
2018-01-25T06:26:59.488Z,938.3
2018-01-25T06:28:07.245Z,938.3
2018-01-25T06:29:12.111Z,938.2
2018-01-25T06:30:17.955Z,938.1
2018-01-25T06:31:27.277Z,938.2
2018-01-25T06:32:36.449Z,938.2
2018-01-25T06:33:44.615Z,938.3
2018-01-25T06:34:53.861Z,938.3
2018-01-25T06:36:00.189Z,938.2
2018-01-25T06:38:56.465Z,938.4
2018-01-25T06:40:07.164Z,938.3
2018-01-25T06:41:14.221Z,934.2
2018-01-25T06:42:21.003Z,938.3
2018-01-25T06:43:27.385Z,934.2
2018-01-25T06:44:34.021Z,934.2
2018-01-25T06:45:40.895Z,938.4
2018-01-25T06:46:52.386Z,938.5
2018-01-25T06:47:58.854Z,938.4
2018-01-25T06:49:05.789Z,938.4
2018-01-25T06:50:15.979Z,938.4
2018-01-25T06:51:24.630Z,938.4
2018-01-25T06:52:31.796Z,938.4
2018-01-25T06:53:39.907Z,938.3
2018-01-25T06:54:46.235Z,938.4
2018-01-25T06:55:53.289Z,938.3
2018-01-25T06:57:09.865Z,938.4
2018-01-25T06:58:18.383Z,938.4
2018-01-25T06:59:29.113Z,938.3
2018-01-25T07:00:36.236Z,938.4
2018-01-25T07:01:54.413Z,938.4
2018-01-25T07:03:01.120Z,938.4
2018-01-25T07:04:09.183Z,938.3
2018-01-25T07:05:15.349Z,938.4
2018-01-25T07:06:23.921Z,938.3
2018-01-25T07:07:34.285Z,938.3
2018-01-25T07:08:39.964Z,938.3
2018-01-25T07:09:48.971Z,938.5
2018-01-25T07:10:56.217Z,938.4
2018-01-25T07:12:02.464Z,938.4
2018-01-25T07:13:50.316Z,938.4
2018-01-25T07:14:58.431Z,938.4
2018-01-25T07:16:08.051Z,938.4
2018-01-25T07:17:16.661Z,938.3
2018-01-25T07:18:23.806Z,938.3
2018-01-25T07:19:32.822Z,938.4
2018-01-25T07:20:53.773Z,938.3
2018-01-25T07:22:00.178Z,938.4
2018-01-25T07:23:08.370Z,938.2
2018-01-25T07:24:13.584Z,938.3
2018-01-25T07:25:27.772Z,938.4
2018-01-25T07:26:34.843Z,938.3
2018-01-25T07:27:40.859Z,938.3
2018-01-25T07:28:51.742Z,938.3
2018-01-25T07:29:59.365Z,938.4
2018-01-25T07:31:05.028Z,938.3
2018-01-25T07:32:12.211Z,938.4
2018-01-25T07:33:19.959Z,938.3
2018-01-25T07:34:23.278Z,938.3
2018-01-25T07:35:27.224Z,938.4
2018-01-25T07:36:39.380Z,938.3
2018-01-25T07:37:47.148Z,938.3
2018-01-25T07:38:53.000Z,938.3
2018-01-25T07:40:01.888Z,938.4
2018-01-25T07:41:08.110Z,938.4
2018-01-25T07:42:15.156Z,938.3
2018-01-25T07:43:20.502Z,938.3
2018-01-25T07:44:25.729Z,938.3
2018-01-25T07:45:31.596Z,938.3
2018-01-25T07:46:36.500Z,938.3
2018-01-25T07:47:48.675Z,938.3
2018-01-25T07:48:57.310Z,938.3
2018-01-25T07:50:02.758Z,938.2
2018-01-25T07:51:10.586Z,938.3
2018-01-25T07:52:18.295Z,938.3
2018-01-25T07:53:24.280Z,938.2
2018-01-25T07:54:30.313Z,938.3
2018-01-25T07:55:37.728Z,938.3
2018-01-25T07:56:45.503Z,938.3
2018-01-25T07:57:55.193Z,938.2
2018-01-25T07:59:39.259Z,938.3
2018-01-25T08:00:46.721Z,938.3
2018-01-25T08:01:50.681Z,938.2
2018-01-25T08:02:54.689Z,938.2
2018-01-25T08:03:58.748Z,938.2
2018-01-25T08:05:02.806Z,938.2
2018-01-25T08:06:07.536Z,938.1
2018-01-25T08:07:10.766Z,938.2
2018-01-25T08:08:14.842Z,938.2
2018-01-25T08:09:21.049Z,938.2
2018-01-25T08:11:02.846Z,938.1
2018-01-25T08:12:07.993Z,938.1
2018-01-25T08:13:12.176Z,938.1
2018-01-25T08:14:16.094Z,938.1
2018-01-25T08:15:19.620Z,938.1
2018-01-25T08:16:23.117Z,938.1
2018-01-25T08:17:27.743Z,938.2
2018-01-25T08:18:31.872Z,938.1
2018-01-25T08:19:35.155Z,938.1
2018-01-25T08:20:38.456Z,938.1
2018-01-25T08:21:45.379Z,938.1
2018-01-25T08:22:48.668Z,938
2018-01-25T08:23:52.691Z,938
2018-01-25T08:24:58.017Z,938
2018-01-25T08:26:02.448Z,938.1
2018-01-25T08:27:05.992Z,938
2018-01-25T08:28:11.153Z,938
2018-01-25T08:29:16.202Z,938
2018-01-25T08:30:19.622Z,938.1
2018-01-25T08:31:23.728Z,938
2018-01-25T08:32:30.894Z,938
2018-01-25T08:33:36.338Z,938
2018-01-25T08:34:40.776Z,938
2018-01-25T08:35:44.784Z,938
2018-01-25T08:36:50.882Z,938
2018-01-25T08:37:55.512Z,937.9
2018-01-25T08:38:59.094Z,937.9
2018-01-25T08:40:04.779Z,937.9
2018-01-25T08:41:09.883Z,937.9
2018-01-25T08:42:13.347Z,937.9
2018-01-25T08:43:23.466Z,937.9
2018-01-25T08:44:28.186Z,937.9
2018-01-25T08:45:35.269Z,937.9
2018-01-25T08:46:40.585Z,937.8
2018-01-25T08:47:45.427Z,937.9
2018-01-25T08:48:52.196Z,937.8
2018-01-25T08:49:58.019Z,937.8
2018-01-25T08:51:01.350Z,937.8
2018-01-25T08:52:04.905Z,937.8
2018-01-25T08:53:08.979Z,937.9
2018-01-25T08:54:17.085Z,937.9
2018-01-25T08:55:20.412Z,937
2018-01-25T08:56:23.927Z,937.8
2018-01-25T08:57:28.025Z,937.8
2018-01-25T08:58:31.434Z,937.8
2018-01-25T08:59:34.912Z,937.8
2018-01-25T09:00:38.340Z,937.8
2018-01-25T09:01:41.779Z,937.8
2018-01-25T09:02:45.988Z,937.8
2018-01-25T09:03:49.440Z,937.8
2018-01-25T09:04:57.737Z,937.8
2018-01-25T09:06:01.110Z,937.8
2018-01-25T09:07:04.574Z,937.8
2018-01-25T09:08:08.673Z,937.8
2018-01-25T09:09:12.106Z,937.7
2018-01-25T09:10:15.756Z,937.7
2018-01-25T09:11:19.236Z,937.7
2018-01-25T09:12:22.734Z,937.7
2018-01-25T09:13:27.216Z,937.7
2018-01-25T09:14:30.563Z,937.7
2018-01-25T09:15:38.101Z,937.7
2018-01-25T09:16:41.511Z,937.7
2018-01-25T09:17:46.150Z,937.6
2018-01-25T09:18:49.480Z,937.7
2018-01-25T09:19:52.903Z,937.6
2018-01-25T09:20:57.033Z,937.7
2018-01-25T09:22:00.571Z,937.6
2018-01-25T09:23:03.874Z,937.5
2018-01-25T09:24:07.195Z,937.5
2018-01-25T09:25:11.131Z,937.6
2018-01-25T09:26:18.280Z,937.6
2018-01-25T09:27:21.715Z,937.6
2018-01-25T09:28:25.028Z,937.6
2018-01-25T09:29:28.477Z,937.6
2018-01-25T09:30:31.904Z,937.5
2018-01-25T09:31:35.397Z,937.5
2018-01-25T09:32:39.142Z,937.6
2018-01-25T09:33:42.506Z,937.6
2018-01-25T09:34:46.055Z,937.6
2018-01-25T09:35:49.336Z,937.6
2018-01-25T09:36:56.399Z,937.5
2018-01-25T09:37:59.928Z,937.6
2018-01-25T09:39:03.312Z,937.6
2018-01-25T09:40:06.731Z,937.7
2018-01-25T09:41:10.071Z,937.7
2018-01-25T09:42:13.557Z,937.7
2018-01-25T09:43:17.020Z,937.7
2018-01-25T09:44:20.308Z,937.6
2018-01-25T09:45:24.413Z,937.6
2018-01-25T09:46:28.036Z,937.5
2018-01-25T09:47:35.734Z,937.5
2018-01-25T09:48:39.376Z,937.6
2018-01-25T09:49:42.751Z,937.5
2018-01-25T09:50:46.045Z,937.6
2018-01-25T09:51:49.499Z,937.7
2018-01-25T09:52:52.839Z,937.5
2018-01-25T09:53:56.128Z,937.5
2018-01-25T09:54:59.458Z,937.5
2018-01-25T09:56:02.999Z,937.5
2018-01-25T09:57:06.426Z,937.5
2018-01-25T09:58:13.549Z,937.5
2018-01-25T09:59:17.619Z,937.5
2018-01-25T10:00:21.063Z,937.4
2018-01-25T10:01:24.531Z,937.4
2018-01-25T10:02:27.897Z,937.4
2018-01-25T10:03:31.222Z,937.4
2018-01-25T10:04:35.271Z,937.4
2018-01-25T10:05:39.517Z,937.4
2018-01-25T10:06:43.010Z,937.3
2018-01-25T10:07:47.097Z,937.4
2018-01-25T10:08:54.910Z,937.3
2018-01-25T10:09:58.319Z,937.3
2018-01-25T10:11:01.704Z,933.7
2018-01-25T10:12:05.552Z,937.3
2018-01-25T10:13:13.141Z,937.3
2018-01-25T10:14:16.511Z,937.3
2018-01-25T10:15:20.504Z,937.3
2018-01-25T10:16:24.584Z,937.2
2018-01-25T10:17:28.518Z,937.2
2018-01-25T10:18:31.877Z,937.1
2018-01-25T10:19:38.974Z,937.2
2018-01-25T10:20:42.833Z,937.1
2018-01-25T10:21:47.538Z,937.2
2018-01-25T10:22:51.865Z,937.1
2018-01-25T10:23:56.314Z,937.3
2018-01-25T10:24:59.679Z,937.2
2018-01-25T10:26:02.961Z,937.2
2018-01-25T10:27:06.459Z,937.2
2018-01-25T10:28:10.011Z,937.1
2018-01-25T10:29:13.396Z,937.1
2018-01-25T10:30:20.392Z,937.1
2018-01-25T10:31:24.474Z,937.1
2018-01-25T10:32:27.806Z,937.1
2018-01-25T10:33:31.951Z,937.1
2018-01-25T10:34:35.374Z,937.2
2018-01-25T10:35:38.642Z,937.1
2018-01-25T10:36:43.248Z,937
2018-01-25T10:37:46.742Z,937.1
2018-01-25T10:38:50.758Z,937.1
2018-01-25T10:39:54.839Z,937
2018-01-25T10:41:02.586Z,937
2018-01-25T10:42:05.994Z,937
2018-01-25T10:43:09.507Z,937.1
2018-01-25T10:44:12.886Z,937
2018-01-25T10:45:16.383Z,937
2018-01-25T10:46:19.635Z,937
2018-01-25T10:47:23.089Z,937
2018-01-25T10:48:26.367Z,937
2018-01-25T10:49:30.032Z,937
2018-01-25T10:50:33.344Z,937
2018-01-25T10:51:40.377Z,936.9
2018-01-25T10:52:43.885Z,936.9
2018-01-25T10:53:48.192Z,937
2018-01-25T10:54:51.610Z,936.9
2018-01-25T10:55:55.086Z,936.9
2018-01-25T10:56:58.525Z,937
2018-01-25T10:58:01.895Z,936.9
2018-01-25T10:59:05.343Z,936.9
2018-01-25T11:00:08.698Z,936.8
2018-01-25T11:01:12.160Z,937
2018-01-25T11:02:19.162Z,936.8
2018-01-25T11:03:22.431Z,936.9
2018-01-25T11:04:25.867Z,936.9
2018-01-25T11:05:29.250Z,936.8
2018-01-25T11:06:32.683Z,936.8
2018-01-25T11:07:36.031Z,936.8
2018-01-25T11:08:39.356Z,936.8
2018-01-25T11:09:42.758Z,936.7
2018-01-25T11:10:46.970Z,936.7
2018-01-25T11:11:50.347Z,936.7
2018-01-25T11:12:57.188Z,936.7
2018-01-25T11:14:01.264Z,936.7
2018-01-25T11:15:04.669Z,936.7
2018-01-25T11:16:08.042Z,936.7
2018-01-25T11:17:11.520Z,936.7
2018-01-25T11:18:15.067Z,936.7
2018-01-25T11:19:18.494Z,936.7
2018-01-25T11:20:22.212Z,936.7
2018-01-25T11:21:25.561Z,936.6
2018-01-25T11:22:29.943Z,936.5
2018-01-25T11:23:36.785Z,936.5
2018-01-25T11:24:40.203Z,936.5
2018-01-25T11:25:43.801Z,936.5
2018-01-25T11:26:47.156Z,936.4
2018-01-25T11:27:51.171Z,936.4
2018-01-25T11:28:54.558Z,936.4
2018-01-25T11:29:57.855Z,936.4
2018-01-25T11:31:01.088Z,936.4
2018-01-25T11:32:04.558Z,936.4
2018-01-25T11:33:08.135Z,936.4
2018-01-25T11:34:15.686Z,936.3
2018-01-25T11:35:19.204Z,936.3
2018-01-25T11:36:22.642Z,936.3
2018-01-25T11:37:26.132Z,936.3
2018-01-25T11:38:31.251Z,936.3
2018-01-25T11:39:35.231Z,936.3
2018-01-25T11:40:39.624Z,936.3
2018-01-25T11:41:45.180Z,936.2
2018-01-25T11:42:48.668Z,936.2
2018-01-25T11:43:51.907Z,936.2
2018-01-25T11:44:58.782Z,936.3
2018-01-25T11:46:02.739Z,936.1
2018-01-25T11:47:07.218Z,936.2
2018-01-25T11:48:10.636Z,936.2
2018-01-25T11:49:14.130Z,936.2
2018-01-25T11:50:17.646Z,936.1
2018-01-25T11:51:21.158Z,936.2
2018-01-25T11:52:25.621Z,936.1
2018-01-25T11:53:28.812Z,936.1
2018-01-25T11:54:32.245Z,936
2018-01-25T11:55:39.949Z,936
2018-01-25T11:56:43.547Z,936
2018-01-25T11:57:47.264Z,936
2018-01-25T11:58:51.531Z,936
2018-01-25T11:59:55.358Z,935.9
2018-01-25T12:00:58.700Z,935.9
2018-01-25T12:02:02.214Z,935.9
2018-01-25T12:03:05.580Z,935.9
2018-01-25T12:04:09.158Z,935.8
2018-01-25T12:05:12.495Z,935.7
2018-01-25T12:06:21.542Z,935.8
2018-01-25T12:07:25.586Z,935.7
2018-01-25T12:08:29.067Z,935.7
2018-01-25T12:09:33.116Z,935.7
2018-01-25T12:10:36.560Z,935.7
2018-01-25T12:11:39.978Z,935.7
2018-01-25T12:12:43.381Z,935.6
2018-01-25T12:13:46.845Z,935.6
2018-01-25T12:14:50.334Z,935.6
2018-01-25T12:15:54.263Z,935.5
2018-01-25T12:17:01.495Z,935.5
2018-01-25T12:18:05.044Z,935.5
2018-01-25T12:19:08.587Z,935.3
2018-01-25T12:20:12.195Z,935.4
2018-01-25T12:21:15.816Z,935.4
2018-01-25T12:22:19.382Z,935.4
2018-01-25T12:23:22.841Z,935.3
2018-01-25T12:24:26.324Z,935.3
2018-01-25T12:25:29.719Z,935.4
2018-01-25T12:26:33.819Z,935.4
2018-01-25T12:27:40.763Z,935.3
2018-01-25T12:28:44.091Z,935.3
2018-01-25T12:29:47.506Z,935.2
2018-01-25T12:30:51.068Z,935.3
2018-01-25T12:31:54.364Z,935.2
2018-01-25T12:32:57.592Z,935.3
2018-01-25T12:34:00.966Z,935.3
2018-01-25T12:35:04.300Z,935.2
2018-01-25T12:36:08.209Z,935.2
2018-01-25T12:37:11.523Z,935.2
2018-01-25T12:38:18.568Z,935.2
2018-01-25T12:39:22.635Z,935.1
2018-01-25T12:40:26.177Z,935.2
2018-01-25T12:41:29.516Z,935.1
2018-01-25T12:42:34.266Z,935.1
2018-01-25T12:43:37.441Z,935.1
2018-01-25T12:44:40.889Z,935.1
2018-01-25T12:45:45.083Z,935.1
2018-01-25T12:46:48.421Z,935.1
2018-01-25T12:47:51.994Z,935.1
2018-01-25T12:48:59.744Z,935
2018-01-25T12:50:03.117Z,935
2018-01-25T12:51:06.482Z,935
2018-01-25T12:52:09.803Z,934.9
2018-01-25T12:53:13.223Z,935
2018-01-25T12:54:16.686Z,935
2018-01-25T12:55:20.745Z,935
2018-01-25T12:56:24.731Z,934.9
2018-01-25T12:57:28.089Z,934.9
2018-01-25T12:58:31.552Z,934.9
2018-01-25T12:59:38.750Z,934.9
2018-01-25T13:00:42.909Z,935
2018-01-25T13:01:46.347Z,934.9
2018-01-25T13:02:50.496Z,934.9
2018-01-25T13:03:54.616Z,934.9
2018-01-25T13:04:58.014Z,934.8
2018-01-25T13:06:01.192Z,934.8
2018-01-25T13:07:04.573Z,934.8
2018-01-25T13:08:07.977Z,934.9
2018-01-25T13:09:11.464Z,934.7
2018-01-25T13:10:18.199Z,934.2
2018-01-25T13:11:21.605Z,934.7
2018-01-25T13:12:25.459Z,934.9
2018-01-25T13:13:29.017Z,934.8
2018-01-25T13:14:32.554Z,934.8
2018-01-25T13:15:36.100Z,934.8
2018-01-25T13:16:39.653Z,934.8
2018-01-25T13:17:42.925Z,934.7
2018-01-25T13:18:47.253Z,934.6
2018-01-25T13:19:50.620Z,934.6
2018-01-25T13:20:57.468Z,934.7
2018-01-25T13:22:00.833Z,934.7
2018-01-25T13:23:04.465Z,934.7
2018-01-25T13:24:07.876Z,934.6
2018-01-25T13:25:11.972Z,934.6
2018-01-25T13:26:15.273Z,934.7
2018-01-25T13:27:18.728Z,934.6
2018-01-25T13:28:22.054Z,934.7
2018-01-25T13:29:25.557Z,934.7
2018-01-25T13:30:28.937Z,934.6
2018-01-25T13:31:36.589Z,934.6
2018-01-25T13:32:40.192Z,934.5
2018-01-25T13:33:43.552Z,931.2
2018-01-25T13:34:46.950Z,934.6
2018-01-25T13:35:50.312Z,934.5
2018-01-25T13:36:53.908Z,934.6
2018-01-25T13:37:57.311Z,934.6
2018-01-25T13:39:00.669Z,934.5
2018-01-25T13:40:04.073Z,934.5
2018-01-25T13:41:07.479Z,934.5
2018-01-25T13:42:14.564Z,934.5
2018-01-25T13:43:18.112Z,934.5
2018-01-25T13:44:21.581Z,934.5
2018-01-25T13:45:24.926Z,934.5
2018-01-25T13:46:28.425Z,934.5
2018-01-25T13:47:31.729Z,934.5
2018-01-25T13:48:35.159Z,934.6
2018-01-25T13:49:38.509Z,934.5
2018-01-25T13:50:41.932Z,934.5
2018-01-25T13:51:45.194Z,934.6
2018-01-25T13:52:52.182Z,934.6
2018-01-25T13:53:55.511Z,934.6
2018-01-25T13:54:59.089Z,934.5
2018-01-25T13:56:02.629Z,934.5
2018-01-25T13:57:06.044Z,934.5
2018-01-25T13:58:09.532Z,934.5
2018-01-25T13:59:12.769Z,934.5
2018-01-25T14:00:16.914Z,934.5
2018-01-25T14:01:20.592Z,934.5
2018-01-25T14:02:23.959Z,934.5
2018-01-25T14:03:30.859Z,934.5
2018-01-25T14:04:34.119Z,934.5
2018-01-25T14:05:37.505Z,934.5
2018-01-25T14:06:41.019Z,934.3
2018-01-25T14:07:44.408Z,934.4
2018-01-25T14:08:57.834Z,934.4
2018-01-25T14:10:01.862Z,934.4
2018-01-25T14:11:05.319Z,934.4
2018-01-25T14:12:08.783Z,934.4
2018-01-25T14:13:12.120Z,934.4
2018-01-25T14:14:19.860Z,934.4
2018-01-25T14:15:23.381Z,934.4